»·PEaware :: CPA898 VHHH-KLAX

CPA898 :: VHHH-KLAX

FLIGHT INFORMATION

Flight Status: Arrived
Operator:
Cathay Pacific Airways
More flights by this operator :: More flights under this callsign
Pilot: Bryan S. (13276)
Aircraft: Unknown
(A359)
More flights by this aircraft type
Origin: VHHH Hong Kong Chek Lap Kok
Hong Kong
Destination: KLAX Los Angeles Intl
United States
More flights between these airports :: More routes between these airports
Route: OCEAN V3 ENVAR M750 MOLKA M750 BUNGU Y81 SYOYU Y809 SPEAR Y808 ONION OTR5 KALNA KALIG CUTEE CARTO 5000N/18000E 5000N/17000W 5000N/16000W 4900N/15000W 4700N/14000W 4400N/13000W LATNE ENI BURGL IRNMN1
File this flight plan on PilotEdge
Remarks:
Altitude:
(Current/Filed)
37,000ft
Speed:
(Current/Filed)
490kts
Departed: 26-May-17 06:17 PM
Arrived: 27-May-17 07:36 AM
Distance/Time
Traveled:
6294nm/13:18
Distance/Time
To Go:
Arrived

Flight Plot

Page will automatically refresh every two minutes.

Flight plan parsing failed; only flown route is shown


Map Options




Map Legend


Flown Route
Filed Route
Departure Airport
Arrival Airport
Navaid (VOR, NDB)
Fix

Horizontal Profiles

Position Reports

Time Latitude Longitude Heading Altitude Ground
Speed
26-May-17 17:53 22.310175 113.925364 115 43ft 0kts
26-May-17 17:54 22.310175 113.925364 115 43ft 0kts
26-May-17 17:55 22.310274 113.925138 115 43ft 2kts
26-May-17 17:56 22.310619 113.924665 161 43ft 2kts
26-May-17 17:57 22.311041 113.924687 205 44ft 0kts
26-May-17 17:58 22.311041 113.924687 205 44ft 0kts
26-May-17 17:59 22.311041 113.924687 205 44ft 0kts
26-May-17 18:00 22.311041 113.924687 205 44ft 0kts
26-May-17 18:01 22.311041 113.924687 205 44ft 0kts
26-May-17 18:02 22.311041 113.924687 205 44ft 0kts
26-May-17 18:03 22.311041 113.924687 205 45ft 0kts
26-May-17 18:04 22.311041 113.924687 205 45ft 0kts
26-May-17 18:05 22.311041 113.924687 205 44ft 0kts
26-May-17 18:06 22.311041 113.924687 205 44ft 0kts
26-May-17 18:07 22.311041 113.924687 205 44ft 0kts
26-May-17 18:08 22.311041 113.924687 205 44ft 0kts
26-May-17 18:09 22.311041 113.924687 205 44ft 0kts
26-May-17 18:10 22.310739 113.924499 209 43ft 12kts
26-May-17 18:11 22.307365 113.923536 159 37ft 15kts
26-May-17 18:12 22.305123 113.919663 251 36ft 20kts
26-May-17 18:19 22.307682 113.933542 71 529ft 184kts
26-May-17 18:20 22.318576 113.969034 72 2406ft 172kts
26-May-17 18:21 22.320297 114.022279 124 4037ft 218kts
26-May-17 18:22 22.253361 114.049238 161 4879ft 280kts
26-May-17 18:23 22.188645 114.094386 127 7057ft 288kts
26-May-17 18:24 22.150641 114.171376 116 8998ft 298kts
26-May-17 18:45 22.310174 113.925361 0 43ft 0kts
26-May-17 18:46 22.310174 113.925362 115 43ft 0kts
26-May-17 18:47 22.310470 113.924679 121 43ft 3kts
26-May-17 18:48 22.310928 113.924493 196 44ft 0kts
26-May-17 18:49 22.310928 113.924493 196 44ft 0kts
26-May-17 18:50 22.310928 113.924493 196 44ft 0kts
26-May-17 18:51 22.310928 113.924493 196 44ft 0kts
26-May-17 18:52 22.310928 113.924493 196 44ft 0kts
26-May-17 18:53 22.310800 113.924452 196 43ft 0kts
26-May-17 18:54 22.308504 113.923298 197 39ft 10kts
26-May-17 18:55 22.306634 113.921422 251 36ft 16kts
26-May-17 18:56 22.304702 113.915332 251 33ft 23kts
26-May-17 18:57 22.301975 113.906918 250 33ft 26kts
26-May-17 18:58 22.300180 113.901281 251 39ft 20kts
26-May-17 18:59 22.297731 113.897526 160 33ft 0kts
26-May-17 19:00 22.296535 113.898744 74 32ft 5kts
26-May-17 19:01 22.296546 113.898785 73 33ft 0kts
26-May-17 19:02 22.297429 113.901641 70 38ft 69kts
26-May-17 19:03 22.311525 113.945937 70 1054ft 189kts
26-May-17 19:04 22.329118 114.005005 93 2874ft 245kts
26-May-17 19:05 22.276631 114.043205 161 6632ft 224kts
26-May-17 19:06 22.220919 114.063630 162 8628ft 213kts
26-May-17 19:07 22.161601 114.088340 137 9185ft 251kts
26-May-17 19:08 22.126608 114.157822 117 10573ft 270kts
26-May-17 19:09 22.092055 114.230497 118 12185ft 276kts
26-May-17 19:10 22.055214 114.307417 118 13107ft 309kts
26-May-17 19:11 22.012872 114.395783 118 13753ft 354kts
26-May-17 19:12 21.965850 114.493799 118 15011ft 377kts
26-May-17 19:13 21.916905 114.595537 118 16619ft 388kts
26-May-17 19:14 21.866525 114.699613 119 18109ft 399kts
26-May-17 19:15 21.818305 114.805054 109 19535ft 409kts
26-May-17 19:16 21.809534 114.860882 92 20158ft 415kts
26-May-17 19:17 21.805588 114.986009 92 21489ft 424kts
26-May-17 19:18 21.800963 115.114079 93 22781ft 433kts
26-May-17 19:19 21.796078 115.244754 93 24015ft 442kts
26-May-17 19:20 21.791087 115.378045 93 25172ft 451kts
26-May-17 19:21 21.786144 115.514260 93 26277ft 460kts
26-May-17 19:22 21.780996 115.651756 93 27326ft 468kts
26-May-17 19:23 21.775622 115.792902 93 27956ft 473kts
26-May-17 19:24 21.770080 115.933996 93 27958ft 474kts
26-May-17 19:25 21.764384 116.075766 93 28411ft 478kts
26-May-17 19:26 21.758492 116.219298 93 29024ft 485kts
26-May-17 19:27 21.752391 116.364664 93 30014ft 490kts
26-May-17 19:28 21.746062 116.512262 93 30889ft 498kts
26-May-17 19:29 21.739503 116.661530 93 31697ft 505kts
26-May-17 19:30 21.745758 116.812775 74 32456ft 511kts
26-May-17 19:31 21.796064 116.956001 67 32959ft 516kts
26-May-17 19:32 21.848202 117.099737 67 32979ft 520kts
26-May-17 19:33 21.901277 117.247076 67 32987ft 533kts
26-May-17 19:34 21.954502 117.395438 67 32987ft 533kts
26-May-17 19:35 22.015082 117.540268 58 32988ft 530kts
26-May-17 19:36 22.091556 117.675297 56 32943ft 530kts
26-May-17 19:37 22.166713 117.807538 56 32985ft 530kts
26-May-17 19:38 22.243270 117.943148 56 32978ft 530kts
26-May-17 19:39 22.320783 118.078263 55 32952ft 530kts
26-May-17 19:40 22.398815 118.211899 55 32950ft 530kts
26-May-17 19:41 22.475525 118.346878 56 32928ft 530kts
26-May-17 19:42 22.551259 118.481212 56 32910ft 530kts
26-May-17 19:43 22.627557 118.615120 55 32908ft 530kts
26-May-17 19:44 22.702540 118.747176 56 32902ft 531kts
26-May-17 19:45 22.778978 118.882155 56 32907ft 531kts
26-May-17 19:46 22.855620 119.017650 56 32908ft 537kts
26-May-17 19:47 22.934030 119.156587 56 32908ft 563kts
26-May-17 19:48 23.013217 119.297521 56 32908ft 538kts
26-May-17 19:49 23.089707 119.433769 56 32908ft 543kts
26-May-17 19:50 23.166204 119.569932 56 32906ft 543kts
26-May-17 19:51 23.240476 119.702828 56 32884ft 543kts
26-May-17 19:52 23.317536 119.841645 56 32907ft 543kts
26-May-17 19:53 23.407532 119.970166 40 32907ft 536kts
26-May-17 19:54 23.500807 120.065654 39 32908ft 535kts
26-May-17 19:55 23.607198 120.175180 39 32909ft 535kts
26-May-17 19:56 23.711170 120.282784 39 32922ft 535kts
26-May-17 19:57 23.813844 120.389328 39 32930ft 535kts
26-May-17 19:58 23.916302 120.495957 39 32932ft 535kts
26-May-17 19:59 24.018470 120.603416 39 32932ft 535kts
26-May-17 20:00 24.118586 120.709506 40 32881ft 536kts
26-May-17 20:01 24.222539 120.819436 40 32932ft 536kts
26-May-17 20:02 24.327279 120.930747 40 32932ft 536kts
26-May-17 20:03 24.429771 121.044654 46 32934ft 539kts
26-May-17 20:04 24.522784 121.171997 48 32945ft 539kts
26-May-17 20:05 24.615019 121.299680 48 32957ft 539kts
26-May-17 20:06 24.707931 121.428400 48 32961ft 539kts
26-May-17 20:07 24.800216 121.556647 48 32961ft 539kts
26-May-17 20:08 24.891522 121.684109 49 32927ft 539kts
26-May-17 20:09 24.988380 121.808420 45 32960ft 539kts
26-May-17 20:10 25.087180 121.933923 45 32960ft 550kts
26-May-17 20:11 25.187077 122.061714 45 32959ft 555kts
26-May-17 20:12 25.286488 122.190890 46 32961ft 555kts
26-May-17 20:13 25.385878 122.320500 46 32961ft 555kts
26-May-17 20:14 25.485226 122.450574 46 32961ft 555kts
26-May-17 20:15 25.584994 122.580085 45 32961ft 555kts
26-May-17 20:16 25.684586 122.709861 46 32945ft 555kts
26-May-17 20:17 25.784424 122.840607 46 32961ft 555kts
26-May-17 20:18 25.883771 122.970815 46 32961ft 555kts
26-May-17 20:19 25.983539 123.101717 46 32961ft 555kts
26-May-17 20:20 26.082847 123.232615 46 32961ft 555kts
26-May-17 20:21 26.181943 123.363088 46 32958ft 555kts
26-May-17 20:22 26.281046 123.494399 46 32961ft 555kts
26-May-17 20:23 26.380044 123.626147 46 32961ft 555kts
26-May-17 20:24 26.478689 123.758343 47 32958ft 556kts
26-May-17 20:25 26.576934 123.890036 47 32961ft 556kts
26-May-17 20:26 26.675551 124.022453 46 32961ft 556kts
26-May-17 20:27 26.773924 124.153650 46 32961ft 556kts
26-May-17 20:28 26.872003 124.285277 46 32961ft 556kts
26-May-17 20:29 26.970176 124.417600 46 32961ft 559kts
26-May-17 20:30 27.069421 124.551243 45 32962ft 563kts
26-May-17 20:31 27.168341 124.684764 46 32922ft 561kts
26-May-17 20:32 27.267389 124.819660 46 32961ft 562kts
26-May-17 20:33 27.366126 124.954469 46 32961ft 563kts
26-May-17 20:34 27.465828 125.089244 45 32961ft 564kts
26-May-17 20:35 27.565617 125.223697 45 32962ft 564kts
26-May-17 20:36 27.664649 125.357936 45 32974ft 564kts
26-May-17 20:37 27.763778 125.492744 45 32986ft 564kts
26-May-17 20:38 27.862224 125.627044 45 32990ft 564kts
26-May-17 20:39 27.960758 125.762413 46 32996ft 564kts
26-May-17 20:40 28.059011 125.897482 46 33003ft 564kts
26-May-17 20:41 28.157989 126.033339 45 32995ft 564kts
26-May-17 20:42 28.256887 126.169595 46 33003ft 564kts
26-May-17 20:43 28.355616 126.306426 46 33003ft 564kts
26-May-17 20:44 28.454634 126.444099 46 32994ft 564kts
26-May-17 20:45 28.553370 126.581839 46 32989ft 564kts
26-May-17 20:46 28.651914 126.720092 46 32976ft 565kts
26-May-17 20:47 28.750388 126.858759 46 32989ft 565kts
26-May-17 20:48 28.848976 126.997684 46 32989ft 565kts
26-May-17 20:49 28.947608 127.137108 46 32989ft 565kts
26-May-17 20:50 29.046314 127.277166 46 32989ft 568kts
26-May-17 20:51 29.145235 127.417658 46 32974ft 570kts
26-May-17 20:52 29.244179 127.558576 46 33005ft 569kts
26-May-17 20:53 29.342277 127.699473 47 32994ft 569kts
26-May-17 20:54 29.440714 127.841626 47 33023ft 569kts
26-May-17 20:55 29.538793 127.983354 47 33023ft 569kts
26-May-17 20:56 29.637334 128.125350 47 33023ft 569kts
26-May-17 20:57 29.735597 128.267960 47 33023ft 569kts
26-May-17 20:58 29.833538 128.410667 47 33023ft 569kts
26-May-17 20:59 29.930964 128.553132 47 33023ft 569kts
26-May-17 21:00 30.028534 128.696477 48 32994ft 570kts
26-May-17 21:01 30.125445 128.839537 47 32991ft 569kts
26-May-17 21:02 30.223218 128.983348 48 33023ft 569kts
26-May-17 21:03 30.320063 129.126958 48 33023ft 568kts
26-May-17 21:04 30.416967 129.271296 48 33023ft 568kts
26-May-17 21:05 30.513354 129.415359 48 33023ft 568kts
26-May-17 21:06 30.610081 129.560469 48 33023ft 568kts
26-May-17 21:07 30.705744 129.704809 49 33000ft 568kts
26-May-17 21:08 30.801536 129.850115 49 33023ft 568kts
26-May-17 21:09 30.891361 130.001628 56 33022ft 571kts
26-May-17 21:10 30.974719 130.159476 55 33023ft 578kts
26-May-17 21:11 31.059291 130.319447 55 33023ft 584kts
26-May-17 21:12 31.141766 130.475400 55 33012ft 584kts
26-May-17 21:13 31.226872 130.637035 55 33023ft 584kts
26-May-17 21:14 31.310606 130.797909 56 33021ft 584kts
26-May-17 21:15 31.394815 130.959835 56 33023ft 587kts
26-May-17 21:16 31.479474 131.123364 56 33023ft 589kts
26-May-17 21:17 31.563953 131.287510 56 33023ft 589kts
26-May-17 21:18 31.648480 131.451875 56 33023ft 589kts
26-May-17 21:19 31.732647 131.616233 56 33023ft 589kts
26-May-17 21:20 31.815378 131.779460 57 33019ft 589kts
26-May-17 21:21 31.899202 131.945239 57 33023ft 589kts
26-May-17 21:22 31.982457 132.110472 57 33023ft 589kts
26-May-17 21:23 32.065744 132.276654 57 33023ft 589kts
26-May-17 21:24 32.146927 132.441892 60 33017ft 590kts
26-May-17 21:25 32.219477 132.615233 62 33023ft 591kts
26-May-17 21:26 32.292001 132.788326 62 33017ft 591kts
26-May-17 21:27 32.364626 132.961435 62 32977ft 591kts
26-May-17 21:28 32.437207 133.135052 63 32941ft 588kts
26-May-17 21:29 32.509123 133.308126 63 32935ft 585kts
26-May-17 21:30 32.580602 133.481032 63 32935ft 585kts
26-May-17 21:31 32.651330 133.652983 63 32914ft 585kts
26-May-17 21:32 32.722154 133.826576 63 32907ft 586kts
26-May-17 21:33 32.792807 134.000464 64 32908ft 586kts
26-May-17 21:34 32.850282 134.181012 74 32907ft 585kts
26-May-17 21:35 32.895808 134.366604 74 32908ft 585kts
26-May-17 21:36 32.939904 134.545131 74 32929ft 584kts
26-May-17 21:37 32.985312 134.730162 75 33328ft 586kts
26-May-17 21:38 33.030446 134.915536 75 34166ft 582kts
26-May-17 21:39 33.074294 135.096897 76 34685ft 584kts
26-May-17 21:40 33.115251 135.269663 77 35003ft 589kts
26-May-17 21:41 33.157105 135.458582 77 35464ft 590kts
26-May-17 21:42 33.198331 135.647157 77 36013ft 589kts
26-May-17 21:43 33.238920 135.835267 78 36384ft 588kts
26-May-17 21:44 33.280083 136.024138 78 36714ft 588kts
26-May-17 21:45 33.320733 136.213152 78 37013ft 588kts
26-May-17 21:46 33.360961 136.402412 78 37027ft 588kts
26-May-17 21:47 33.400814 136.591399 78 37026ft 588kts
26-May-17 21:48 33.433714 136.748798 79 36980ft 588kts
26-May-17 21:49 33.479658 136.970236 80 36920ft 589kts
26-May-17 21:50 33.512327 137.129084 80 36912ft 590kts
26-May-17 21:51 33.557503 137.350917 80 36908ft 590kts
26-May-17 21:52 33.589656 137.510423 80 36858ft 590kts
26-May-17 21:53 33.627771 137.700050 80 36770ft 589kts
26-May-17 21:54 33.672162 137.922923 81 36802ft 589kts
26-May-17 21:55 33.703398 138.082120 81 36802ft 589kts
26-May-17 21:56 33.752619 138.304196 73 36803ft 594kts
26-May-17 21:57 33.801066 138.458525 71 36802ft 595kts
26-May-17 21:58 33.859050 138.644404 71 36802ft 594kts
26-May-17 21:59 33.916287 138.830441 72 36823ft 594kts
26-May-17 22:00 33.973289 139.016434 72 36962ft 593kts
26-May-17 22:01 34.038741 139.231518 72 37023ft 581kts
26-May-17 22:02 34.084603 139.383595 72 37026ft 581kts
26-May-17 22:03 34.149274 139.554750 59 37021ft 585kts
26-May-17 22:04 34.236249 139.719893 58 37009ft 585kts
26-May-17 22:05 34.322642 139.885518 58 37026ft 585kts
26-May-17 22:06 34.409353 140.051758 58 37027ft 585kts
26-May-17 22:07 34.495874 140.218240 58 37024ft 585kts
26-May-17 22:08 34.581648 140.384776 58 36942ft 585kts
26-May-17 22:09 34.666734 140.550939 58 36846ft 585kts
26-May-17 22:10 34.753569 140.717821 54 36814ft 585kts
26-May-17 22:11 34.849573 140.876968 53 36843ft 585kts
26-May-17 22:12 34.943919 141.036575 54 36854ft 589kts
26-May-17 22:13 35.039204 141.199316 55 36854ft 598kts
26-May-17 22:14 35.135917 141.364982 54 36836ft 602kts
26-May-17 22:15 35.232563 141.530826 55 36855ft 602kts
26-May-17 22:16 35.327913 141.696084 56 36825ft 602kts
26-May-17 22:17 35.423994 141.863817 56 36855ft 602kts
26-May-17 22:18 35.519691 142.031193 55 36855ft 602kts
26-May-17 22:19 35.614709 142.198216 56 36855ft 602kts
26-May-17 22:20 35.709715 142.366132 55 36855ft 602kts
26-May-17 22:21 35.803649 142.533315 55 36855ft 602kts
26-May-17 22:22 35.895593 142.695312 56 36824ft 602kts
26-May-17 22:23 35.987525 142.858497 56 36855ft 600kts
26-May-17 22:24 36.078091 143.019985 55 36856ft 591kts
26-May-17 22:25 36.167570 143.179343 55 36852ft 588kts
26-May-17 22:26 36.256890 143.339792 55 36855ft 588kts
26-May-17 22:27 36.345640 143.500379 55 36855ft 588kts
26-May-17 22:28 36.434974 143.663063 56 36845ft 589kts
26-May-17 22:29 36.528305 143.823852 45 36878ft 587kts
26-May-17 22:30 36.657350 143.938046 23 36882ft 577kts
26-May-17 22:31 36.791733 144.033079 25 36881ft 576kts
26-May-17 22:32 36.926630 144.131200 25 36881ft 577kts
26-May-17 22:33 37.036684 144.266018 74 36872ft 580kts
26-May-17 22:34 37.060667 144.460308 89 36881ft 575kts
26-May-17 22:35 37.083409 144.657708 89 36876ft 582kts
26-May-17 22:36 37.106725 144.855314 89 36874ft 583kts
26-May-17 22:37 37.130064 145.054875 89 36882ft 582kts
26-May-17 22:38 37.152313 145.252191 89 36882ft 576kts
26-May-17 22:39 37.174077 145.448948 89 36882ft 575kts
26-May-17 22:40 37.200484 145.644609 77 36879ft 586kts
26-May-17 22:41 37.275029 145.822744 58 36879ft 596kts
26-May-17 22:42 37.362207 145.994930 59 36882ft 596kts
26-May-17 22:43 37.448804 146.169898 59 36882ft 596kts
26-May-17 22:44 37.534395 146.343816 59 36882ft 596kts
26-May-17 22:45 37.619073 146.516724 60 36882ft 596kts
26-May-17 22:46 37.702898 146.688912 61 36847ft 595kts
26-May-17 22:47 37.785410 146.859733 60 36903ft 596kts
26-May-17 22:48 37.868137 147.031598 59 36931ft 590kts
26-May-17 22:49 37.951022 147.204431 59 36936ft 584kts
26-May-17 22:50 38.031960 147.374012 59 36937ft 584kts
26-May-17 22:51 38.111759 147.542130 58 36909ft 584kts
26-May-17 22:52 38.193294 147.713876 59 36914ft 584kts
26-May-17 22:53 38.273265 147.884580 59 36936ft 584kts
26-May-17 22:54 38.354157 148.057855 59 36943ft 584kts
26-May-17 22:55 38.434464 148.230777 59 36959ft 584kts
26-May-17 22:56 38.515289 148.405757 59 36964ft 584kts
26-May-17 22:57 38.596306 148.582150 59 36965ft 584kts
26-May-17 22:58 38.676642 148.758396 60 36957ft 584kts
26-May-17 22:59 38.756738 148.934993 60 36965ft 581kts
26-May-17 23:00 38.834286 149.106667 60 36965ft 577kts
26-May-17 23:01 38.913184 149.282321 60 36964ft 578kts
26-May-17 23:02 38.992695 149.460468 60 36964ft 584kts
26-May-17 23:03 39.072296 149.640125 60 36965ft 588kts
26-May-17 23:04 39.155968 149.818415 53 36958ft 588kts
26-May-17 23:05 39.261819 149.975490 44 36964ft 585kts
26-May-17 23:06 39.371858 150.127988 44 36965ft 585kts
26-May-17 23:07 39.480667 150.280932 44 36965ft 585kts
26-May-17 23:08 39.589790 150.435137 44 36965ft 585kts
26-May-17 23:09 39.697593 150.588221 44 36965ft 585kts
26-May-17 23:10 39.804993 150.741844 45 36958ft 586kts
26-May-17 23:11 39.912623 150.896539 45 36965ft 586kts
26-May-17 23:12 40.020488 151.052052 45 36965ft 583kts
26-May-17 23:13 40.127310 151.206688 45 36934ft 576kts
26-May-17 23:14 40.233056 151.359925 45 36964ft 576kts
26-May-17 23:15 40.338645 151.514417 45 36965ft 576kts
26-May-17 23:16 40.442737 151.667548 46 36938ft 576kts
26-May-17 23:17 40.547436 151.822954 46 36964ft 576kts
26-May-17 23:18 40.653030 151.979953 46 36965ft 576kts
26-May-17 23:19 40.755309 152.132721 46 36965ft 576kts
26-May-17 23:20 40.860365 152.290459 46 36965ft 576kts
26-May-17 23:21 40.965341 152.448894 46 36965ft 576kts
26-May-17 23:22 41.070606 152.608610 45 36964ft 585kts
26-May-17 23:23 41.175793 152.768853 46 36956ft 592kts
26-May-17 23:24 41.281864 152.931483 46 36965ft 590kts
26-May-17 23:25 41.385251 153.090962 45 36965ft 581kts
26-May-17 23:26 41.487763 153.249778 45 36965ft 578kts
26-May-17 23:27 41.590303 153.409511 45 36964ft 578kts
26-May-17 23:28 41.692875 153.570198 45 36965ft 578kts
26-May-17 23:29 41.795239 153.731712 46 36955ft 579kts
26-May-17 23:30 41.897241 153.893612 46 36964ft 578kts
26-May-17 23:31 41.997950 154.053910 46 36965ft 579kts
26-May-17 23:32 42.098955 154.215635 46 36964ft 579kts
26-May-17 23:33 42.201363 154.379638 46 36964ft 579kts
26-May-17 23:34 42.301604 154.541762 46 36965ft 579kts
26-May-17 23:35 42.402906 154.706821 47 36945ft 579kts
26-May-17 23:36 42.503580 154.872060 48 36965ft 579kts
26-May-17 23:37 42.603678 155.036771 48 36965ft 578kts
26-May-17 23:38 42.702615 155.200648 48 36965ft 577kts
26-May-17 23:39 42.802556 155.367132 48 36965ft 577kts
26-May-17 23:40 42.901795 155.533564 48 36963ft 578kts
26-May-17 23:41 43.002981 155.704693 50 36820ft 586kts
26-May-17 23:42 43.104499 155.880514 50 36732ft 591kts
26-May-17 23:43 43.205902 156.056725 50 36721ft 591kts
26-May-17 23:44 43.306687 156.233664 50 36720ft 591kts
26-May-17 23:45 43.407392 156.411686 50 36720ft 591kts
26-May-17 23:46 43.507490 156.589690 50 36720ft 591kts
26-May-17 23:47 43.607733 156.769457 51 36715ft 591kts
26-May-17 23:48 43.707148 156.948707 51 36720ft 591kts
26-May-17 23:49 43.806541 157.128873 50 36720ft 588kts
26-May-17 23:50 43.905063 157.308372 50 36720ft 586kts
26-May-17 23:51 44.003200 157.488273 50 36720ft 586kts
26-May-17 23:52 44.101005 157.668727 51 36694ft 586kts
26-May-17 23:53 44.198679 157.849669 50 36719ft 586kts
26-May-17 23:54 44.295915 158.031253 51 36720ft 586kts
26-May-17 23:55 44.392861 158.213550 51 36720ft 586kts
26-May-17 23:56 44.489649 158.396658 51 36720ft 586kts
26-May-17 23:57 44.585711 158.579569 50 36720ft 586kts
26-May-17 23:58 44.681962 158.764387 51 36714ft 586kts
26-May-17 23:59 44.777447 158.948814 52 36720ft 587kts
27-May-17 00:00 44.873621 159.135366 52 36720ft 590kts
27-May-17 00:01 44.969357 159.322577 52 36720ft 590kts
27-May-17 00:02 45.065345 159.511505 52 36719ft 596kts
27-May-17 00:03 45.162154 159.702432 52 36689ft 600kts
27-May-17 00:04 45.258337 159.894145 52 36720ft 600kts
27-May-17 00:05 45.354598 160.087319 52 36720ft 600kts
27-May-17 00:06 45.450535 160.281127 52 36720ft 600kts
27-May-17 00:07 45.546037 160.475443 52 36718ft 600kts
27-May-17 00:08 45.641342 160.670650 53 36693ft 600kts
27-May-17 00:09 45.735856 160.866205 53 36718ft 600kts
27-May-17 00:10 45.830149 161.062141 53 36720ft 598kts
27-May-17 00:11 45.924095 161.258584 52 36720ft 599kts
27-May-17 00:12 46.017653 161.455648 53 36720ft 598kts
27-May-17 00:13 46.110408 161.652377 53 36693ft 598kts
27-May-17 00:14 46.203540 161.850873 54 36719ft 599kts
27-May-17 00:15 46.295791 162.049678 53 36720ft 599kts
27-May-17 00:16 46.387750 162.249812 54 36720ft 599kts
27-May-17 00:17 46.474341 162.455164 59 36721ft 600kts
27-May-17 00:18 46.555545 162.666125 59 36701ft 600kts
27-May-17 00:19 46.636986 162.877270 59 36720ft 600kts
27-May-17 00:20 46.718030 163.088364 59 36720ft 600kts
27-May-17 00:21 46.799048 163.301001 59 36720ft 601kts
27-May-17 00:22 46.879709 163.514416 59 36720ft 600kts
27-May-17 00:23 46.959922 163.728592 59 36698ft 607kts
27-May-17 00:24 47.041000 163.947097 58 36721ft 617kts
27-May-17 00:25 47.122731 164.168195 58 36697ft 617kts
27-May-17 00:26 47.204252 164.389529 59 36720ft 618kts
27-May-17 00:27 47.285019 164.612163 58 36721ft 618kts
27-May-17 00:28 47.365273 164.835681 59 36717ft 618kts
27-May-17 00:29 47.445101 165.059599 60 36721ft 614kts
27-May-17 00:30 47.523724 165.281861 60 36719ft 611kts
27-May-17 00:31 47.601750 165.504218 60 36721ft 611kts
27-May-17 00:32 47.679545 165.728063 62 36698ft 612kts
27-May-17 00:33 47.756854 165.952889 61 36720ft 613kts
27-May-17 00:34 47.833799 166.177964 61 36728ft 613kts
27-May-17 00:35 47.910259 166.403622 61 36809ft 612kts
27-May-17 00:36 47.986517 166.630691 61 36846ft 612kts
27-May-17 00:37 48.061895 166.857633 62 36849ft 612kts
27-May-17 00:38 48.136758 167.083824 62 36841ft 606kts
27-May-17 00:39 48.211040 167.309828 62 36850ft 607kts
27-May-17 00:40 48.284523 167.536567 62 36850ft 607kts
27-May-17 00:41 48.357671 167.764603 63 36838ft 607kts
27-May-17 00:42 48.430032 167.992410 63 36850ft 607kts
27-May-17 00:43 48.502217 168.221374 63 36850ft 607kts
27-May-17 00:44 48.573925 168.451294 63 36850ft 607kts
27-May-17 00:45 48.645108 168.682410 64 36817ft 607kts
27-May-17 00:46 48.701039 168.920949 77 36849ft 606kts
27-May-17 00:47 48.741400 169.166474 76 36851ft 598kts
27-May-17 00:48 48.781589 169.409301 76 36850ft 594kts
27-May-17 00:49 48.821312 169.652172 77 36850ft 595kts
27-May-17 00:50 48.860259 169.894415 77 36849ft 594kts
27-May-17 00:51 48.898909 170.137983 77 36850ft 594kts
27-May-17 00:52 48.936957 170.381246 77 36850ft 594kts
27-May-17 00:53 48.974713 170.626369 77 36850ft 595kts
27-May-17 00:54 49.011956 170.872305 78 36848ft 600kts
27-May-17 00:55 49.048717 171.119290 76 36850ft 597kts
27-May-17 00:56 49.084962 171.365285 76 36850ft 601kts
27-May-17 00:57 49.121408 171.614540 76 36847ft 606kts
27-May-17 00:58 49.157099 171.863622 77 36848ft 606kts
27-May-17 00:59 49.192089 172.113951 77 36850ft 606kts
27-May-17 01:00 49.226749 172.365834 77 36850ft 606kts
27-May-17 01:01 49.260883 172.618265 76 36850ft 606kts
27-May-17 01:02 49.294349 172.870833 77 36848ft 605kts
27-May-17 01:03 49.326926 173.121251 76 36851ft 596kts
27-May-17 01:04 49.353569 173.328070 76 36850ft 597kts
27-May-17 01:05 49.390163 173.618179 76 36850ft 596kts
27-May-17 01:06 49.415880 173.826439 77 36845ft 597kts
27-May-17 01:07 49.446340 174.077086 77 36849ft 597kts
27-May-17 01:08 49.476187 174.327218 77 36850ft 596kts
27-May-17 01:09 49.510315 174.619225 77 36850ft 597kts
27-May-17 01:10 49.534241 174.828588 78 36845ft 597kts
27-May-17 01:11 49.562304 175.078860 77 36850ft 593kts
27-May-17 01:12 49.589684 175.327395 77 36849ft 587kts
27-May-17 01:13 49.616419 175.574599 77 36849ft 587kts
27-May-17 01:14 49.642604 175.822756 78 36844ft 587kts
27-May-17 01:15 49.668237 176.070998 78 36850ft 587kts
27-May-17 01:16 49.693344 176.319120 77 36850ft 587kts
27-May-17 01:17 49.717982 176.568101 77 36851ft 587kts
27-May-17 01:18 49.742020 176.817207 79 36844ft 587kts
27-May-17 01:19 49.765494 177.066638 78 36850ft 583kts
27-May-17 01:20 49.788259 177.313082 77 36849ft 581kts
27-May-17 01:21 49.810568 177.560727 77 36849ft 582kts
27-May-17 01:22 49.832244 177.807868 78 36844ft 582kts
27-May-17 01:23 49.853420 178.055775 78 36849ft 582kts
27-May-17 01:24 49.874083 178.303729 78 36850ft 581kts
27-May-17 01:25 49.894200 178.551617 78 36848ft 581kts
27-May-17 01:26 49.913786 178.799961 79 36842ft 582kts
27-May-17 01:27 49.932754 179.048629 78 36850ft 579kts
27-May-17 01:28 49.951240 179.296022 78 36849ft 579kts
27-May-17 01:29 49.969106 179.543486 78 36849ft 579kts
27-May-17 01:30 49.986390 179.792219 79 36841ft 579kts
27-May-17 01:31 50.002618 -179.959219 79 36859ft 582kts
27-May-17 01:32 50.013421 -179.708430 83 37005ft 585kts
27-May-17 01:33 50.023092 -179.456573 83 36995ft 584kts
27-May-17 01:34 50.032445 -179.204816 83 37036ft 585kts
27-May-17 01:35 50.041267 -178.953212 83 37035ft 585kts
27-May-17 01:36 50.049603 -178.700569 83 37036ft 585kts
27-May-17 01:37 50.057302 -178.450450 84 36998ft 585kts
27-May-17 01:38 50.064486 -178.198187 84 37036ft 586kts
27-May-17 01:39 50.071154 -177.945585 84 37034ft 585kts
27-May-17 01:40 50.077271 -177.693548 83 37036ft 586kts
27-May-17 01:41 50.082847 -177.440525 84 37036ft 585kts
27-May-17 01:42 50.087879 -177.187678 85 37030ft 586kts
27-May-17 01:43 50.092318 -176.934645 85 37037ft 586kts
27-May-17 01:44 50.096256 -176.682170 84 37036ft 585kts
27-May-17 01:45 50.099636 -176.429773 84 37034ft 585kts
27-May-17 01:46 50.102990 -176.178449 85 37029ft 586kts
27-May-17 01:47 50.105376 -175.926264 85 37035ft 585kts
27-May-17 01:48 50.107117 -175.672745 85 37035ft 585kts
27-May-17 01:49 50.108312 -175.420080 85 37036ft 585kts
27-May-17 01:50 50.108949 -175.167015 86 37032ft 586kts
27-May-17 01:51 50.108849 -174.911282 83 37018ft 594kts
27-May-17 01:52 50.108531 -174.654843 83 37000ft 594kts
27-May-17 01:53 50.107509 -174.397848 84 37000ft 594kts
27-May-17 01:54 50.105878 -174.140648 84 36995ft 594kts
27-May-17 01:55 50.103694 -173.884325 84 36998ft 595kts
27-May-17 01:56 50.100965 -173.627097 85 36998ft 595kts
27-May-17 01:57 50.097629 -173.369744 85 37000ft 594kts
27-May-17 01:58 50.093752 -173.113068 85 36999ft 596kts
27-May-17 01:59 50.089134 -172.855546 83 37002ft 597kts
27-May-17 02:00 50.084173 -172.597826 82 36999ft 594kts
27-May-17 02:01 50.078686 -172.341199 83 36997ft 595kts
27-May-17 02:02 50.072478 -172.083138 83 37001ft 598kts
27-May-17 02:03 50.065720 -171.825874 83 37000ft 597kts
27-May-17 02:04 50.058361 -171.567963 84 36999ft 595kts
27-May-17 02:05 50.050517 -171.310949 84 36965ft 596kts
27-May-17 02:06 50.042050 -171.054481 85 37001ft 596kts
27-May-17 02:07 50.033053 -170.802385 84 37001ft 576kts
27-May-17 02:08 50.023806 -170.553961 84 37000ft 576kts
27-May-17 02:09 50.013866 -170.306556 85 36964ft 576kts
27-May-17 02:10 50.003527 -170.058074 83 36998ft 574kts
27-May-17 02:11 50.008786 -169.815439 75 37003ft 564kts
27-May-17 02:12 50.018940 -169.576624 76 37068ft 564kts
27-May-17 02:13 50.028141 -169.337849 77 37087ft 563kts
27-May-17 02:14 50.036789 -169.098529 77 37101ft 559kts
27-May-17 02:15 50.044733 -168.865867 78 37101ft 541kts
27-May-17 02:16 50.052163 -168.636685 78 37100ft 541kts
27-May-17 02:17 50.059153 -168.406709 78 37099ft 541kts
27-May-17 02:18 50.065636 -168.176746 79 37097ft 542kts
27-May-17 02:19 50.071706 -167.945495 79 37099ft 542kts
27-May-17 02:20 50.077321 -167.715063 78 37099ft 541kts
27-May-17 02:21 50.082504 -167.484463 79 37100ft 542kts
27-May-17 02:22 50.087189 -167.254673 79 37085ft 543kts
27-May-17 02:23 50.091378 -167.024525 80 37100ft 542kts
27-May-17 02:24 50.095202 -166.796236 81 37101ft 525kts
27-May-17 02:25 50.098387 -166.573852 81 37100ft 523kts
27-May-17 02:26 50.101206 -166.350267 81 37100ft 523kts
27-May-17 02:27 50.103555 -166.126548 82 37099ft 523kts
27-May-17 02:28 50.105498 -165.903754 82 37100ft 524kts
27-May-17 02:29 50.107032 -165.680598 82 37100ft 523kts
27-May-17 02:30 50.108139 -165.457158 82 37100ft 523kts
27-May-17 02:31 50.108800 -165.234546 83 37090ft 524kts
27-May-17 02:32 50.109098 -165.009023 84 37095ft 527kts
27-May-17 02:33 50.108867 -164.783176 85 37091ft 520kts
27-May-17 02:34 50.108203 -164.558108 84 37091ft 520kts
27-May-17 02:35 50.107144 -164.333308 85 37074ft 521kts
27-May-17 02:36 50.105615 -164.107793 85 37090ft 521kts
27-May-17 02:37 50.103678 -163.882998 85 37091ft 521kts
27-May-17 02:38 50.101312 -163.657956 85 37087ft 521kts
27-May-17 02:39 50.098512 -163.432995 85 37063ft 521kts
27-May-17 02:40 50.095261 -163.207936 86 37034ft 521kts
27-May-17 02:41 50.091644 -162.983226 87 37037ft 519kts
27-May-17 02:42 50.087501 -162.759150 87 37036ft 518kts
27-May-17 02:43 50.082970 -162.535751 87 37036ft 518kts
27-May-17 02:44 50.078010 -162.311449 88 37003ft 518kts
27-May-17 02:45 50.072629 -162.088568 88 37036ft 518kts
27-May-17 02:46 50.066804 -161.864618 88 37036ft 518kts
27-May-17 02:47 50.060554 -161.640867 88 37034ft 518kts
27-May-17 02:48 50.053870 -161.417188 88 37021ft 518kts
27-May-17 02:49 50.046750 -161.193669 89 37013ft 519kts
27-May-17 02:50 50.039186 -160.969393 89 37016ft 519kts
27-May-17 02:51 50.031266 -160.746527 91 37001ft 516kts
27-May-17 02:52 50.022756 -160.524383 91 36986ft 516kts
27-May-17 02:53 50.013844 -160.302390 92 36949ft 516kts
27-May-17 02:54 50.004295 -160.080789 92 36979ft 516kts
27-May-17 02:55 49.993664 -159.858490 93 36980ft 516kts
27-May-17 02:56 49.981043 -159.636871 93 36980ft 516kts
27-May-17 02:57 49.967898 -159.415894 93 36980ft 516kts
27-May-17 02:58 49.954311 -159.194475 94 36976ft 516kts
27-May-17 02:59 49.940332 -158.972692 95 36980ft 515kts
27-May-17 03:00 49.925906 -158.752099 95 36980ft 513kts
27-May-17 03:01 49.911121 -158.533089 95 36980ft 513kts
27-May-17 03:02 49.895918 -158.314915 96 36941ft 513kts
27-May-17 03:03 49.879923 -158.096249 96 36979ft 513kts
27-May-17 03:04 49.863820 -157.876552 96 36980ft 513kts
27-May-17 03:05 49.847448 -157.658233 96 36980ft 513kts
27-May-17 03:06 49.830580 -157.438909 96 36980ft 513kts
27-May-17 03:07 49.813398 -157.220570 97 36973ft 513kts
27-May-17 03:08 49.795853 -157.002002 98 36980ft 511kts
27-May-17 03:09 49.777908 -156.785680 98 36980ft 509kts
27-May-17 03:10 49.759695 -156.570937 98 36982ft 509kts
27-May-17 03:11 49.741179 -156.357050 98 36994ft 509kts
27-May-17 03:12 49.722323 -156.143229 99 36996ft 509kts
27-May-17 03:13 49.702983 -155.929093 99 36997ft 509kts
27-May-17 03:14 49.683359 -155.716462 99 36997ft 509kts
27-May-17 03:15 49.663293 -155.503438 99 36997ft 509kts
27-May-17 03:16 49.642831 -155.290361 100 36971ft 508kts
27-May-17 03:17 49.622067 -155.077978 100 36997ft 508kts
27-May-17 03:18 49.600916 -154.865501 101 36998ft 508kts
27-May-17 03:19 49.579353 -154.654049 102 36997ft 506kts
27-May-17 03:20 49.557371 -154.442699 102 36997ft 506kts
27-May-17 03:21 49.535067 -154.231235 102 36989ft 506kts
27-May-17 03:22 49.512356 -154.019816 102 36997ft 506kts
27-May-17 03:23 49.489362 -153.809880 102 36997ft 506kts
27-May-17 03:24 49.465903 -153.599395 102 37011ft 506kts
27-May-17 03:25 49.442503 -153.392964 102 37054ft 506kts
27-May-17 03:26 49.418606 -153.185026 103 37121ft 506kts
27-May-17 03:27 49.394780 -152.980981 104 37143ft 501kts
27-May-17 03:28 49.370717 -152.778752 104 37146ft 495kts
27-May-17 03:29 49.346337 -152.577519 104 37145ft 495kts
27-May-17 03:30 49.321655 -152.376518 104 37144ft 495kts
27-May-17 03:31 49.296609 -152.174895 105 37143ft 495kts
27-May-17 03:32 49.271437 -151.975555 105 37142ft 492kts
27-May-17 03:33 49.245869 -151.776438 105 37138ft 492kts
27-May-17 03:34 49.219893 -151.576955 105 37138ft 492kts
27-May-17 03:35 49.193402 -151.376401 105 37138ft 492kts
27-May-17 03:36 49.166691 -151.176426 106 37136ft 491kts
27-May-17 03:37 49.139917 -150.978741 107 37139ft 483kts
27-May-17 03:38 49.112706 -150.781661 107 37138ft 481kts
27-May-17 03:39 49.085567 -150.587774 106 37138ft 482kts
27-May-17 03:40 49.058291 -150.395376 106 37138ft 484kts
27-May-17 03:41 49.029984 -150.198454 106 37135ft 484kts
27-May-17 03:42 49.001719 -150.005599 106 37138ft 485kts
27-May-17 03:43 48.973188 -149.811229 105 37138ft 485kts
27-May-17 03:44 48.943425 -149.615258 105 37138ft 485kts
27-May-17 03:45 48.913186 -149.419481 105 37138ft 486kts
27-May-17 03:46 48.882432 -149.224527 106 37130ft 485kts
27-May-17 03:47 48.851626 -149.031568 106 37138ft 485kts
27-May-17 03:48 48.820909 -148.838979 108 37139ft 478kts
27-May-17 03:49 48.790008 -148.648956 109 37138ft 474kts
27-May-17 03:50 48.758971 -148.460162 109 37138ft 474kts
27-May-17 03:51 48.728171 -148.274153 110 37122ft 473kts
27-May-17 03:52 48.696870 -148.086881 110 37137ft 474kts
27-May-17 03:53 48.664847 -147.897847 110 37139ft 474kts
27-May-17 03:54 48.632527 -147.709160 110 37137ft 474kts
27-May-17 03:55 48.600248 -147.522716 110 37137ft 474kts
27-May-17 03:56 48.567606 -147.336196 111 37124ft 474kts
27-May-17 03:57 48.534537 -147.148468 111 37136ft 473kts
27-May-17 03:58 48.501429 -146.962522 112 37138ft 467kts
27-May-17 03:59 48.468513 -146.780214 112 37138ft 461kts
27-May-17 04:00 48.435152 -146.597675 112 37139ft 461kts
27-May-17 04:01 48.401253 -146.413679 112 37187ft 461kts
27-May-17 04:02 48.366978 -146.228917 113 37239ft 460kts
27-May-17 04:03 48.332373 -146.044392 113 37255ft 460kts
27-May-17 04:04 48.297411 -145.860076 113 37255ft 460kts
27-May-17 04:05 48.262110 -145.675833 113 37255ft 460kts
27-May-17 04:06 48.226666 -145.492606 113 37256ft 460kts
27-May-17 04:07 48.190933 -145.309528 114 37227ft 459kts
27-May-17 04:08 48.155004 -145.126732 113 37255ft 460kts
27-May-17 04:09 48.118522 -144.943472 113 37255ft 461kts
27-May-17 04:10 48.081722 -144.760135 113 37256ft 461kts
27-May-17 04:11 48.050885 -144.607901 113 37256ft 461kts
27-May-17 04:12 48.007458 -144.395540 113 37255ft 461kts
27-May-17 04:13 47.970055 -144.213916 114 37252ft 461kts
27-May-17 04:14 47.932251 -144.032256 114 37256ft 461kts
27-May-17 04:15 47.900438 -143.880855 114 37256ft 461kts
27-May-17 04:16 47.855089 -143.669396 114 37255ft 461kts
27-May-17 04:17 47.822740 -143.518579 114 37256ft 461kts
27-May-17 04:18 47.777382 -143.308367 114 37227ft 460kts
27-May-17 04:19 47.738162 -143.127735 114 37269ft 460kts
27-May-17 04:20 47.705230 -142.977739 114 37303ft 460kts
27-May-17 04:21 47.658458 -142.766742 114 37318ft 463kts
27-May-17 04:22 47.624764 -142.615831 114 37318ft 463kts
27-May-17 04:23 47.584186 -142.435602 114 37318ft 463kts
27-May-17 04:24 47.543277 -142.255092 114 37310ft 463kts
27-May-17 04:25 47.502184 -142.075307 115 37318ft 462kts
27-May-17 04:26 47.460681 -141.895578 115 37314ft 462kts
27-May-17 04:27 47.418920 -141.716275 115 37288ft 462kts
27-May-17 04:28 47.376956 -141.537600 115 37263ft 463kts
27-May-17 04:29 47.334541 -141.358477 115 37257ft 463kts
27-May-17 04:30 47.292136 -141.180272 115 37256ft 462kts
27-May-17 04:31 47.249206 -141.001910 115 37257ft 465kts
27-May-17 04:32 47.205814 -140.822940 115 37257ft 458kts
27-May-17 04:33 47.162802 -140.647225 115 37257ft 459kts
27-May-17 04:34 47.119270 -140.470889 115 37257ft 459kts
27-May-17 04:35 47.075656 -140.295578 116 37237ft 458kts
27-May-17 04:36 47.031772 -140.121037 116 37257ft 458kts
27-May-17 04:37 46.988039 -139.945992 115 37257ft 457kts
27-May-17 04:38 46.946235 -139.771244 115 37257ft 455kts
27-May-17 04:39 46.903819 -139.597920 115 37257ft 452kts
27-May-17 04:40 46.860869 -139.426115 115 37256ft 451kts
27-May-17 04:41 46.818078 -139.254749 115 37250ft 450kts
27-May-17 04:42 46.775011 -139.083127 115 37257ft 453kts
27-May-17 04:43 46.731263 -138.910341 115 37257ft 457kts
27-May-17 04:44 46.687114 -138.737151 115 37257ft 457kts
27-May-17 04:45 46.642678 -138.564220 115 37257ft 457kts
27-May-17 04:46 46.597978 -138.391592 115 37257ft 457kts
27-May-17 04:47 46.555012 -138.226371 116 37254ft 457kts
27-May-17 04:48 46.510485 -138.056615 116 37257ft 456kts
27-May-17 04:49 46.465223 -137.885535 116 37257ft 456kts
27-May-17 04:50 46.419402 -137.713642 116 37257ft 456kts
27-May-17 04:51 46.373552 -137.542890 116 37257ft 456kts
27-May-17 04:52 46.327361 -137.372105 116 37658ft 456kts
27-May-17 04:53 46.280972 -137.201243 117 38269ft 456kts
27-May-17 04:54 46.234482 -137.031601 117 38788ft 456kts
27-May-17 04:55 46.187731 -136.862468 116 39181ft 457kts
27-May-17 04:56 46.140248 -136.691868 116 39259ft 463kts
27-May-17 04:57 46.092059 -136.519773 116 39260ft 463kts
27-May-17 04:58 46.044267 -136.350378 116 39260ft 463kts
27-May-17 04:59 45.995943 -136.179765 117 39259ft 463kts
27-May-17 05:00 45.947114 -136.008980 117 39260ft 463kts
27-May-17 05:01 45.897945 -135.838335 117 39257ft 463kts
27-May-17 05:02 45.848128 -135.668359 117 39259ft 463kts
27-May-17 05:03 45.798511 -135.498944 117 39260ft 463kts
27-May-17 05:04 45.748652 -135.329501 117 39233ft 463kts
27-May-17 05:05 45.698679 -135.160148 117 39259ft 462kts
27-May-17 05:06 45.648478 -134.991706 117 39259ft 464kts
27-May-17 05:07 45.612889 -134.873036 117 39259ft 466kts
27-May-17 05:08 45.561840 -134.703706 117 39260ft 466kts
27-May-17 05:09 45.510540 -134.534739 117 39260ft 466kts
27-May-17 05:10 45.460228 -134.369960 117 39259ft 440kts
27-May-17 05:11 45.412026 -134.213072 118 39258ft 427kts
27-May-17 05:12 45.365057 -134.061305 118 39259ft 414kts
27-May-17 05:13 45.319091 -133.913774 119 39259ft 402kts
27-May-17 05:14 45.274410 -133.771197 119 39259ft 391kts
27-May-17 05:15 45.230908 -133.633144 119 39258ft 379kts
27-May-17 05:16 45.188467 -133.499147 119 39236ft 368kts
27-May-17 05:17 45.147107 -133.369220 119 39210ft 357kts
27-May-17 05:18 45.107005 -133.243473 120 39202ft 345kts
27-May-17 05:19 45.068217 -133.122845 120 38207ft 350kts
27-May-17 05:20 45.026359 -132.993102 118 37204ft 371kts
27-May-17 05:21 44.982388 -132.857272 118 37202ft 392kts
27-May-17 05:22 44.935718 -132.713799 118 37202ft 415kts
27-May-17 05:23 44.886120 -132.562537 118 37189ft 439kts
27-May-17 05:24 44.832939 -132.402273 117 37201ft 462kts
27-May-17 05:25 44.778886 -132.238897 118 37197ft 462kts
27-May-17 05:26 44.724474 -132.075662 118 37201ft 462kts
27-May-17 05:27 44.669687 -131.912557 118 37201ft 462kts
27-May-17 05:28 44.614810 -131.750213 118 37201ft 462kts
27-May-17 05:29 44.559556 -131.587759 118 37196ft 462kts
27-May-17 05:30 44.504289 -131.426250 118 37189ft 462kts
27-May-17 05:31 44.448630 -131.264269 119 37175ft 462kts
27-May-17 05:32 44.392991 -131.103321 119 37183ft 462kts
27-May-17 05:33 44.336900 -130.942423 118 37183ft 464kts
27-May-17 05:34 44.280020 -130.780273 118 37183ft 469kts
27-May-17 05:35 44.222730 -130.617722 118 37184ft 470kts
27-May-17 05:36 44.165055 -130.455256 118 37184ft 470kts
27-May-17 05:37 44.107178 -130.293211 118 37165ft 469kts
27-May-17 05:38 44.048921 -130.131546 118 37183ft 469kts
27-May-17 05:39 43.984514 -129.975266 131 37187ft 466kts
27-May-17 05:40 43.895701 -129.845464 135 37176ft 465kts
27-May-17 05:41 43.806391 -129.717299 135 37183ft 465kts
27-May-17 05:42 43.716594 -129.588742 135 37184ft 465kts
27-May-17 05:43 43.626957 -129.460889 135 37184ft 465kts
27-May-17 05:44 43.537111 -129.333285 135 37158ft 465kts
27-May-17 05:45 43.447359 -129.205930 135 37183ft 465kts
27-May-17 05:46 43.357104 -129.078860 135 37183ft 465kts
27-May-17 05:47 43.267150 -128.952884 135 37183ft 469kts
27-May-17 05:48 43.175779 -128.825478 135 37184ft 472kts
27-May-17 05:49 43.084074 -128.698157 135 37184ft 472kts
27-May-17 05:50 42.992251 -128.571292 135 37183ft 471kts
27-May-17 05:51 42.900641 -128.445305 135 37178ft 468kts
27-May-17 05:52 42.810173 -128.321996 135 37149ft 466kts
27-May-17 05:53 42.718889 -128.197220 135 37174ft 466kts
27-May-17 05:54 42.627337 -128.072895 135 37175ft 466kts
27-May-17 05:55 42.536024 -127.949492 135 37175ft 466kts
27-May-17 05:56 42.444230 -127.825992 135 37175ft 466kts
27-May-17 05:57 42.352488 -127.703106 135 37175ft 466kts
27-May-17 05:58 42.260521 -127.580461 135 37175ft 466kts
27-May-17 05:59 42.168401 -127.458155 135 37175ft 466kts
27-May-17 06:00 42.076372 -127.336493 136 37153ft 467kts
27-May-17 06:01 41.984259 -127.214845 136 37174ft 466kts
27-May-17 06:02 41.891759 -127.093777 135 37151ft 469kts
27-May-17 06:03 41.797683 -126.971817 135 37174ft 474kts
27-May-17 06:04 41.703049 -126.849273 135 37175ft 476kts
27-May-17 06:05 41.612832 -126.720857 132 37175ft 476kts
27-May-17 06:06 41.523361 -126.592357 132 37175ft 476kts
27-May-17 06:07 41.433579 -126.464785 132 37175ft 476kts
27-May-17 06:08 41.344882 -126.339374 133 37158ft 476kts
27-May-17 06:09 41.254456 -126.211599 133 37174ft 476kts
27-May-17 06:10 41.163818 -126.084478 133 37175ft 476kts
27-May-17 06:11 41.073458 -125.958372 133 37174ft 476kts
27-May-17 06:12 40.982677 -125.832234 133 37168ft 476kts
27-May-17 06:13 40.892069 -125.706899 133 37143ft 477kts
27-May-17 06:14 40.800385 -125.581319 133 37169ft 476kts
27-May-17 06:15 40.708852 -125.455890 133 37173ft 476kts
27-May-17 06:16 40.617896 -125.331619 133 37145ft 476kts
27-May-17 06:17 40.526391 -125.206632 133 37173ft 476kts
27-May-17 06:18 40.434310 -125.081808 133 37173ft 476kts
27-May-17 06:19 40.342291 -124.957709 133 37173ft 478kts
27-May-17 06:20 40.249371 -124.832882 133 37173ft 482kts
27-May-17 06:21 40.155672 -124.707512 133 37173ft 484kts
27-May-17 06:22 40.061750 -124.582396 133 37173ft 484kts
27-May-17 06:23 39.967991 -124.458031 133 37173ft 484kts
27-May-17 06:24 39.875668 -124.336208 134 37117ft 484kts
27-May-17 06:25 39.781426 -124.212338 134 37172ft 484kts
27-May-17 06:26 39.686954 -124.088581 134 37173ft 484kts
27-May-17 06:27 39.592431 -123.965262 134 37166ft 484kts
27-May-17 06:28 39.498252 -123.842904 134 37152ft 484kts
27-May-17 06:29 39.403485 -123.720312 134 37147ft 484kts
27-May-17 06:30 39.308283 -123.597728 134 37147ft 484kts
27-May-17 06:31 39.213270 -123.475987 134 37147ft 484kts
27-May-17 06:32 39.118132 -123.354858 134 37147ft 484kts
27-May-17 06:33 39.044636 -123.264212 138 37150ft 484kts
27-May-17 06:34 38.938819 -123.157805 142 37154ft 485kts
27-May-17 06:35 38.852351 -123.072649 143 37137ft 484kts
27-May-17 06:36 38.750214 -122.972735 142 37150ft 488kts
27-May-17 06:37 38.643721 -122.868638 142 37147ft 492kts
27-May-17 06:38 38.535528 -122.763189 142 37147ft 493kts
27-May-17 06:39 38.427224 -122.658035 142 37147ft 493kts
27-May-17 06:40 38.319742 -122.554081 142 37151ft 493kts
27-May-17 06:41 38.211900 -122.450176 142 37162ft 493kts
27-May-17 06:42 38.103855 -122.346470 143 37164ft 493kts
27-May-17 06:43 37.997496 -122.244263 143 37166ft 493kts
27-May-17 06:44 37.891569 -122.143250 143 37137ft 493kts
27-May-17 06:45 37.784511 -122.042124 143 37157ft 493kts
27-May-17 06:46 37.676310 -121.939905 143 37154ft 493kts
27-May-17 06:47 37.568164 -121.838036 143 37148ft 493kts
27-May-17 06:48 37.461188 -121.737634 143 37150ft 493kts
27-May-17 06:49 37.353846 -121.637256 143 37154ft 493kts
27-May-17 06:50 37.244792 -121.535652 143 37163ft 493kts
27-May-17 06:51 37.134937 -121.433679 143 37181ft 493kts
27-May-17 06:52 37.027785 -121.334482 144 37164ft 492kts
27-May-17 06:53 36.919467 -121.234177 145 37191ft 490kts
27-May-17 06:54 36.811570 -121.135469 145 37187ft 491kts
27-May-17 06:55 36.701492 -121.034907 145 37191ft 492kts
27-May-17 06:56 36.591468 -120.934635 145 37191ft 493kts
27-May-17 06:57 36.481130 -120.834448 145 37179ft 493kts
27-May-17 06:58 36.370649 -120.734483 145 37160ft 493kts
27-May-17 06:59 36.260004 -120.634732 145 37153ft 493kts
27-May-17 07:00 36.149378 -120.535367 145 37152ft 493kts
27-May-17 07:01 36.038650 -120.436283 145 37154ft 493kts
27-May-17 07:02 35.929607 -120.339064 146 37128ft 493kts
27-May-17 07:03 35.822969 -120.244291 146 37145ft 493kts
27-May-17 07:04 35.711867 -120.146372 146 37153ft 493kts
27-May-17 07:05 35.598597 -120.053355 150 37154ft 492kts
27-May-17 07:06 35.482275 -119.966954 150 37154ft 492kts
27-May-17 07:07 35.365790 -119.880013 150 37149ft 492kts
27-May-17 07:08 35.252338 -119.787683 143 37143ft 494kts
27-May-17 07:09 35.144225 -119.686475 144 35172ft 494kts
27-May-17 07:10 35.034709 -119.584895 144 32325ft 501kts
27-May-17 07:11 34.922809 -119.481451 144 29210ft 511kts
27-May-17 07:12 34.809293 -119.379707 146 29103ft 513kts
27-May-17 07:13 34.698006 -119.280972 147 28669ft 484kts
27-May-17 07:14 34.598772 -119.194981 148 27236ft 432kts
27-May-17 07:15 34.504482 -119.112528 146 23964ft 409kts
27-May-17 07:16 34.415061 -119.033804 147 22054ft 390kts
27-May-17 07:17 34.329907 -118.959964 145 18786ft 376kts
27-May-17 07:18 34.249085 -118.886380 144 15777ft 357kts
27-May-17 07:19 34.172935 -118.816398 144 13395ft 321kts
27-May-17 07:20 34.110014 -118.749441 138 10970ft 296kts
27-May-17 07:21 34.060561 -118.695605 138 9991ft 282kts
27-May-17 07:22 34.024443 -118.601312 95 9774ft 276kts
27-May-17 07:23 34.017586 -118.526989 95 8995ft 263kts
27-May-17 07:24 34.011981 -118.464508 90 8071ft 240kts
27-May-17 07:25 34.018616 -118.412036 77 7357ft 250kts
27-May-17 07:26 34.025515 -118.372186 77 6604ft 262kts
27-May-17 07:27 34.030473 -118.316982 93 5527ft 245kts
27-May-17 07:28 34.027457 -118.278613 89 5281ft 217kts
27-May-17 07:29 34.028579 -118.250693 84 5079ft 204kts
27-May-17 07:30 34.027445 -118.206839 97 4242ft 204kts
27-May-17 07:31 34.000076 -118.175149 172 3363ft 196kts
27-May-17 07:32 33.966469 -118.181762 240 2968ft 198kts
27-May-17 07:33 33.971250 -118.236561 281 2982ft 197kts
27-May-17 07:34 33.965304 -118.282526 245 2276ft 208kts
27-May-17 07:35 33.959884 -118.327226 268 1512ft 187kts
27-May-17 07:36 33.955062 -118.374307 264 597ft 162kts
27-May-17 07:37 33.950548 -118.417511 264 128ft 57kts
27-May-17 07:38 33.948810 -118.426404 228 120ft 1kts
27-May-17 07:39 33.947090 -118.427744 192 115ft 7kts
27-May-17 07:40 33.946500 -118.425571 84 117ft 15kts
27-May-17 07:41 33.947027 -118.420283 83 122ft 20kts
27-May-17 07:42 33.947673 -118.414115 80 125ft 16kts
27-May-17 07:43 33.945536 -118.412609 173 125ft 9kts
27-May-17 07:44 33.944594 -118.411811 85 126ft 3kts
27-May-17 07:45 33.944629 -118.411382 84 126ft 0kts
27-May-17 07:46 33.944629 -118.411382 84 126ft 0kts
27-May-17 07:47 33.944629 -118.411382 84 126ft 0kts
27-May-17 07:48 33.944639 -118.411269 84 126ft 0kts
27-May-17 07:49 33.944639 -118.411269 84 126ft 0kts
27-May-17 07:50 33.944639 -118.411269 84 126ft 0kts
27-May-17 07:51 33.944639 -118.411269 84 126ft 0kts
27-May-17 07:52 33.944627 -118.411398 83 126ft 0kts

Navigation Log

Ident Type
Flight plan parsing failed, navigation log unavailable